الصفحة الرئيسية
METAR-TAF:

METAR-TAF

مطار :

نييغاتا, اليابان

دائرة عرض: 37-57N, خط طول: 139-07E, ارتفاع: 1 متر

مراقبة الطقس الحالي

تاريخ ووقت الإصدار 1ساعة و 7 دقيقة قبل الساعة 02:00UTC
ريح 9 عقدة من الجنوب/الجنوب الغربي
درجة الحرارة 26°درجة مئوية
الرطوبة 74%
ضغط 1006 hPa
الرؤية 10 كم أو أكثر
غيوم قليلة على ارتفاع 1500 قدم, مزن ركامية عمودية.
غيوم مفككة على ارتفاع 2000 قدم
غيوم مفككة على ارتفاع 3000 قدم

METAR: RJSN 250200Z 21009KT 9999 FEW015TCU BKN020 BKN030 26/21 Q1006

زمن: 12:07 (03:07 UTC)

توقعات

تاريخ ووقت الإصدار 3ساعات و 52 دقيقة قبل الساعة 23:15UTC
التوقعات صالحة من25 الساعة 00 UTC إلى 26 الساعة 06 UTC
ريح 12 عقدة من الغرب/الجنوب الغربي
الرؤية 10 كم أو أكثر
غيوم قليلة على ارتفاع 1500 قدم
غيوم متفرقة على ارتفاع 4000 قدم
أصبح
من 26 الساعة 00 UTC إلى 26 الساعة 03 UTC
ريح 13 عقدة من الشمال/الشمال الغربي

TAF: RJSN 242315Z 2500/2606 24012KT 9999 FEW015 SCT040 BECMG 2600/2603 33013KT

أرصاد الطقس والتوقعات من أكثر من 4000 مطار (تقارير الطقس للمطار METAR والتنبؤ بالطقس بالمطارTAF).

المحطات المتاحة هي النقط الصفراء والحمراء على الخريطة.

حرك المؤشر فوق النقطة لمعرفة اسم المحطة.

ثم انقر لمعرفة أرصاد وتوقعات الطقس.

لتغيير الخارطة: اضغط على الأزرار الخضراء مع رمز الصليب الأسود للتكبير. على الزر الأخضر مع شرطة للتصغير، أو على الأسهم الخضراء للخرائط المجاورة.


METAR-TAF: